Time;durP1;ratioP1;P1;durP2;ratioP2;P2;SDS_P1;SDS_P2;PMS_P1;PMS_P2;Temp;Humidity;BMP_temperature;BMP_pressure;BME280_temperature;BME280_humidity;BME280_pressure;Samples;Min_cycle;Max_cycle;Signal;HPM_P1;HPM_P2
2021/11/02 00:01:38;;;;;;;1.40;1.30;;;;;;;4.88;100.00;97482.13;4918248;29;20111;-77
2021/11/02 00:04:04;;;;;;;1.50;1.40;;;;;;;4.93;100.00;97470.91;4918395;29;20039;-77
2021/11/02 00:06:29;;;;;;;1.33;1.23;;;;;;;5.02;100.00;97476.75;4918221;29;20035;-77
2021/11/02 00:08:54;;;;;;;1.40;1.30;;;;;;;5.01;100.00;97474.22;4918171;29;20493;-77
2021/11/02 00:11:20;;;;;;;2.22;2.08;;;;;;;4.90;100.00;97482.94;4913051;29;20028;-78
2021/11/02 00:13:47;;;;;;;1.83;1.73;;;;;;;4.90;100.00;97476.97;4909682;29;20490;-77
2021/11/02 00:16:16;;;;;;;2.58;1.13;;;;;;;4.93;100.00;97482.03;4918023;29;20090;-77
2021/11/02 00:18:47;;;;;;;0.93;0.93;;;;;;;4.99;100.00;97481.09;4917570;29;20020;-78
2021/11/02 00:21:13;;;;;;;1.30;1.23;;;;;;;5.02;100.00;97475.91;4917827;29;20028;-78
2021/11/02 00:23:39;;;;;;;1.25;1.25;;;;;;;5.10;100.00;97469.75;4917999;29;20032;-78
2021/11/02 00:26:07;;;;;;;1.17;1.17;;;;;;;5.07;100.00;97480.06;4918035;29;20116;-78
2021/11/02 00:28:33;;;;;;;1.73;1.63;;;;;;;5.22;100.00;97478.13;4917713;29;20024;-77
2021/11/02 00:30:58;;;;;;;1.40;1.38;;;;;;;5.12;100.00;97473.13;4917837;29;20036;-78
2021/11/02 00:33:24;;;;;;;1.52;1.42;;;;;;;5.09;100.00;97472.38;4917777;29;20031;-78
2021/11/02 00:35:49;;;;;;;1.67;1.58;;;;;;;5.06;100.00;97473.25;4917818;29;20553;-78
2021/11/02 00:38:15;;;;;;;2.50;1.45;;;;;;;5.13;100.00;97474.00;4917628;29;20024;-77
2021/11/02 00:40:41;;;;;;;2.35;1.90;;;;;;;5.26;100.00;97480.59;4917803;29;20561;-78
2021/11/02 00:43:09;;;;;;;1.20;1.20;;;;;;;5.12;100.00;97477.44;4906718;29;20028;-77
2021/11/02 00:45:35;;;;;;;2.90;1.83;;;;;;;5.14;100.00;97470.56;4915556;29;20028;-77
2021/11/02 00:48:04;;;;;;;1.23;1.13;;;;;;;5.09;100.00;97474.94;4917543;29;20060;-78
2021/11/02 00:50:34;;;;;;;1.10;1.10;;;;;;;5.10;100.00;97468.94;4917650;29;20020;-77
2021/11/02 00:53:00;;;;;;;1.83;1.73;;;;;;;5.02;100.00;97465.63;4917310;29;20032;-77
2021/11/02 00:55:26;;;;;;;1.92;1.40;;;;;;;5.05;100.00;97471.56;4917412;29;20046;-77
2021/11/02 00:57:51;;;;;;;1.55;1.45;;;;;;;5.18;100.00;97461.94;4917415;29;20103;-77
2021/11/02 05:20:34;;;;;;;0.93;0.93;;;;;;;5.56;100.00;97434.66;4898477;29;20474;-72
2021/11/02 05:48:16;;;;;;;0.50;0.50;;;;;;;4.97;100.00;97426.38;4916891;29;20442;-74
2021/11/02 05:59:12;;;;;;;3.92;1.00;;;;;;;4.78;100.00;97420.69;4916440;29;20454;-73
2021/11/02 06:01:13;;;;;;;0.60;0.60;;;;;;;4.87;100.00;97425.69;4912393;29;20048;-73
2021/11/02 06:28:42;;;;;;;0.60;0.60;;;;;;;4.57;100.00;97437.31;4897212;29;20039;-73
2021/11/02 06:31:15;;;;;;;0.80;0.80;;;;;;;4.58;100.00;97436.41;4897074;29;20092;-73
2021/11/02 06:39:04;;;;;;;0.63;0.63;;;;;;;4.55;100.00;97439.91;4897098;29;20036;-73
2021/11/02 06:47:37;;;;;;;1.05;0.75;;;;;;;4.60;100.00;97442.41;4915953;29;20035;-73
2021/11/02 07:28:30;;;;;;;0.70;0.70;;;;;;;6.00;100.00;97468.97;4915458;29;20032;-73
2021/11/02 08:46:41;;;;;;;1.05;0.73;;;;;;;22.88;37.32;97437.50;4917930;29;20116;-76
2021/11/02 08:49:07;;;;;;;0.88;0.75;;;;;;;24.53;34.64;97435.41;4917562;29;20111;-72
2021/11/02 08:51:34;;;;;;;0.52;0.50;;;;;;;21.36;40.36;97442.63;4917267;29;20036;-72
2021/11/02 08:53:59;;;;;;;2.95;0.70;;;;;;;19.39;44.98;97447.66;4917544;29;20076;-73
2021/11/02 08:56:25;;;;;;;0.50;0.50;;;;;;;16.87;49.23;97446.00;4917477;29;20032;-73
2021/11/02 08:58:52;;;;;;;0.73;0.68;;;;;;;15.12;57.04;97450.56;4916081;29;20043;-73
2021/11/02 09:01:22;;;;;;;0.68;0.68;;;;;;;14.76;57.99;97444.84;4917211;29;20043;-73
2021/11/02 09:03:51;;;;;;;0.52;0.52;;;;;;;13.86;61.46;97461.00;4917372;29;20500;-76
2021/11/02 09:06:23;;;;;;;0.95;0.63;;;;;;;14.33;60.89;97447.19;4917309;29;20027;-76
2021/11/02 09:08:54;;;;;;;0.60;0.57;;;;;;;15.37;58.53;97444.75;4917073;29;20032;-75
2021/11/02 09:11:21;;;;;;;0.45;0.45;;;;;;;15.28;56.80;97439.25;4912465;29;20063;-75
2021/11/02 09:13:53;;;;;;;2.83;0.77;;;;;;;14.51;57.29;97438.41;4907245;29;20038;-74
2021/11/02 09:16:20;;;;;;;1.05;0.82;;;;;;;12.50;63.94;97444.34;4917108;29;20067;-75
2021/11/02 09:18:48;;;;;;;0.88;0.70;;;;;;;11.83;65.47;97453.47;4917005;29;20388;-74
2021/11/02 09:21:17;;;;;;;0.50;0.50;;;;;;;11.57;69.63;97445.03;4917221;29;20035;-75
2021/11/02 09:23:44;;;;;;;0.40;0.40;;;;;;;11.53;66.37;97446.06;4917116;29;20024;-74
2021/11/02 09:26:11;;;;;;;0.30;0.30;;;;;;;11.32;66.71;97449.59;4917111;29;20107;-75
2021/11/02 09:28:36;;;;;;;0.30;0.30;;;;;;;11.14;69.01;97450.38;4916640;29;20024;-75
2021/11/02 09:31:03;;;;;;;2.08;0.30;;;;;;;10.97;72.80;97451.03;4916844;29;20039;-75
2021/11/02 09:33:29;;;;;;;0.65;0.52;;;;;;;10.50;75.35;97446.88;4916714;29;20039;-75
2021/11/02 09:36:06;;;;;;;1.40;0.77;;;;;;;10.36;78.56;97456.94;4915559;29;20541;-74
2021/11/02 09:38:40;;;;;;;0.57;0.57;;;;;;;9.85;78.63;97462.25;4916706;29;20051;-75
2021/11/02 09:41:23;;;;;;;0.50;0.50;;;;;;;9.89;79.17;97467.28;4913624;29;20032;-75
2021/11/02 09:44:27;;;;;;;0.73;0.73;;;;;;;9.41;82.10;97467.25;4906960;29;20039;-75
2021/11/02 09:47:27;;;;;;;0.93;0.60;;;;;;;8.82;85.42;97473.53;4916627;29;20016;-75
2021/11/02 09:50:29;;;;;;;0.70;0.70;;;;;;;8.88;88.49;97475.91;4916233;29;20035;-74
2021/11/02 09:52:55;;;;;;;0.50;0.50;;;;;;;8.87;87.14;97471.63;4915548;29;20043;-72
2021/11/02 09:55:48;;;;;;;0.50;0.50;;;;;;;8.78;88.43;97464.19;4916523;29;20087;-68
2021/11/02 09:58:41;;;;;;;0.40;0.40;;;;;;;8.55;87.83;97474.38;4916225;29;20051;-68
2021/11/02 10:01:29;;;;;;;0.40;0.40;;;;;;;8.55;88.39;97480.38;4915061;29;20470;-74
2021/11/02 10:04:25;;;;;;;0.80;0.80;;;;;;;8.60;88.92;97477.66;4916136;29;20165;-74
2021/11/02 10:07:17;;;;;;;0.90;0.50;;;;;;;8.62;91.04;97476.75;4914931;29;20068;-74
2021/11/02 10:10:11;;;;;;;1.27;0.75;;;;;;;8.68;90.94;97465.38;4915917;29;20433;-74
2021/11/02 10:13:12;;;;;;;1.15;1.05;;;;;;;8.68;90.80;97462.78;4902006;29;20035;-74
2021/11/02 10:16:00;;;;;;;0.60;0.60;;;;;;;8.61;90.87;97466.47;4873456;29;20052;-69
2021/11/02 10:18:56;;;;;;;0.93;0.93;;;;;;;8.80;89.52;97459.81;4878522;29;20043;-68
2021/11/02 10:21:35;;;;;;;0.40;0.40;;;;;;;8.82;88.19;97463.19;4878293;29;20021;-68
2021/11/02 10:24:22;;;;;;;0.65;0.65;;;;;;;8.82;89.25;97460.63;4878506;29;20061;-72
2021/11/02 10:26:57;;;;;;;0.60;0.60;;;;;;;8.93;91.42;97461.09;4878312;29;20068;-72
2021/11/02 10:29:28;;;;;;;0.70;0.70;;;;;;;8.93;89.10;97460.25;4878024;29;20398;-69
2021/11/02 10:32:03;;;;;;;0.77;0.77;;;;;;;9.04;89.67;97459.91;4878112;29;20059;-73
2021/11/02 10:34:44;;;;;;;0.50;0.50;;;;;;;8.89;91.50;97462.09;4878592;29;20479;-71
2021/11/02 10:37:15;;;;;;;0.63;0.63;;;;;;;9.03;92.22;97456.47;4878453;29;20035;-74
2021/11/02 10:40:07;;;;;;;1.23;0.98;;;;;;;9.12;92.75;97452.75;4878315;29;20021;-75
2021/11/02 10:43:16;;;;;;;3.00;0.60;;;;;;;9.29;89.54;97452.19;4898583;29;20145;-75
2021/11/02 10:45:53;;;;;;;1.40;0.70;;;;;;;9.32;90.17;97455.50;4863051;29;20392;-71
2021/11/02 10:48:50;;;;;;;0.70;0.70;;;;;;;9.10;90.61;97450.22;4878112;29;20621;-75
2021/11/02 10:51:35;;;;;;;0.77;0.77;;;;;;;9.01;90.78;97448.78;4877940;29;20048;-73
2021/11/02 10:54:13;;;;;;;0.50;0.50;;;;;;;8.87;90.45;97445.81;4877084;29;20029;-74
2021/11/02 10:56:53;;;;;;;0.32;0.32;;;;;;;8.86;91.82;97449.28;4878109;29;20037;-76
2021/11/02 10:59:21;;;;;;;0.55;0.55;;;;;;;8.97;94.58;97452.34;4878250;29;20531;-71
2021/11/02 11:01:47;;;;;;;0.40;0.40;;;;;;;9.18;93.15;97452.53;4878017;29;20476;-76
2021/11/02 11:04:14;;;;;;;0.40;0.40;;;;;;;9.01;95.60;97451.38;4881082;29;20081;-73
2021/11/02 11:06:43;;;;;;;0.90;0.90;;;;;;;9.16;92.93;97446.59;4881918;29;20035;-73
2021/11/02 11:09:13;;;;;;;0.40;0.40;;;;;;;9.13;91.14;97451.84;4881806;29;20033;-69
2021/11/02 11:11:46;;;;;;;0.60;0.60;;;;;;;9.11;90.50;97448.47;4890451;29;20044;-74
2021/11/02 11:14:14;;;;;;;0.38;0.38;;;;;;;8.93;89.59;97443.00;4911576;29;20070;-74
2021/11/02 11:16:47;;;;;;;0.50;0.50;;;;;;;9.10;91.17;97447.63;4919995;29;20027;-76
2021/11/02 11:19:48;;;;;;;0.52;0.52;;;;;;;9.10;92.87;97441.63;4919204;29;20545;-76
2021/11/02 11:22:19;;;;;;;0.68;0.68;;;;;;;9.13;92.23;97446.69;4910405;29;20044;-75
2021/11/02 11:24:55;;;;;;;0.70;0.70;;;;;;;9.19;94.51;97446.50;4919376;29;20024;-77
2021/11/02 11:27:21;;;;;;;1.58;0.85;;;;;;;9.28;94.56;97440.97;4919060;29;20039;-76
2021/11/02 11:29:49;;;;;;;1.38;1.17;;;;;;;9.16;91.04;97441.41;4946155;23;20096;-77
2021/11/02 11:32:16;;;;;;;1.65;0.82;;;;;;;9.33;90.20;97439.09;4900115;29;20032;-77
2021/11/02 11:34:45;;;;;;;0.60;0.60;;;;;;;9.22;90.89;97441.19;4900081;29;20065;-77
2021/11/02 11:37:13;;;;;;;1.30;0.70;;;;;;;9.28;91.18;97446.16;4900107;29;20040;-77
2021/11/02 11:39:42;;;;;;;1.63;0.75;;;;;;;9.43;95.84;97434.47;4899921;29;20032;-77
2021/11/02 11:42:07;;;;;;;0.40;0.40;;;;;;;9.46;94.51;97440.34;4898153;29;20024;-77
2021/11/02 11:44:32;;;;;;;0.55;0.55;;;;;;;9.43;90.81;97432.72;4910699;29;20163;-79
2021/11/02 11:47:10;;;;;;;0.50;0.50;;;;;;;9.46;91.23;97426.59;4918712;29;20024;-77
2021/11/02 11:49:38;;;;;;;0.40;0.40;;;;;;;9.44;91.62;97431.81;4918544;29;20024;-77
2021/11/02 11:52:06;;;;;;;0.50;0.50;;;;;;;9.35;93.63;97421.78;4918521;29;20036;-77
2021/11/02 11:54:50;;;;;;;0.50;0.50;;;;;;;9.61;89.85;97417.44;4918633;29;20020;-75
2021/11/02 11:57:33;;;;;;;1.83;0.70;;;;;;;9.66;87.27;97424.13;4918619;29;20386;-77
2021/11/02 12:00:07;;;;;;;0.43;0.43;;;;;;;9.94;88.04;97415.34;4918397;29;20436;-77
2021/11/02 12:02:40;;;;;;;0.70;0.70;;;;;;;10.08;89.67;97414.84;4918182;29;20490;-77
2021/11/02 12:05:17;;;;;;;0.50;0.50;;;;;;;10.02;87.36;97415.94;4917115;29;20445;-77
2021/11/02 12:08:03;;;;;;;0.50;0.50;;;;;;;10.40;84.38;97414.47;4918465;29;20102;-77
2021/11/02 12:10:29;;;;;;;0.38;0.38;;;;;;;10.44;85.82;97405.69;4918179;29;20035;-77
2021/11/02 12:12:55;;;;;;;1.95;0.50;;;;;;;10.34;84.31;97404.34;4908729;29;20435;-77
2021/11/02 12:15:23;;;;;;;0.47;0.47;;;;;;;10.25;84.42;97399.53;4913291;29;20441;-77
2021/11/02 12:17:51;;;;;;;0.60;0.60;;;;;;;10.59;86.53;97403.38;4918133;29;20032;-77
2021/11/02 12:20:18;;;;;;;0.40;0.40;;;;;;;10.65;86.95;97393.63;4899704;29;20522;-77
2021/11/02 12:22:49;;;;;;;0.40;0.40;;;;;;;11.05;84.21;97398.00;4899135;29;20060;-77
2021/11/02 12:25:26;;;;;;;0.50;0.50;;;;;;;10.79;85.75;97391.31;4899153;29;20036;-77
2021/11/02 12:27:53;;;;;;;0.40;0.40;;;;;;;11.53;83.07;97378.63;4899236;29;20025;-77
2021/11/02 12:30:21;;;;;;;0.47;0.47;;;;;;;11.36;81.93;97386.31;4898809;29;20625;-77
2021/11/02 12:32:57;;;;;;;0.77;0.77;;;;;;;11.36;80.99;97385.47;4898881;29;20565;-77
2021/11/02 12:35:30;;;;;;;0.60;0.60;;;;;;;11.22;79.10;97386.09;4899272;29;20467;-77
2021/11/02 12:37:57;;;;;;;0.40;0.40;;;;;;;10.93;83.51;97385.56;4899040;29;20036;-77
2021/11/02 12:40:38;;;;;;;0.57;0.57;;;;;;;11.27;80.08;97389.31;4898683;29;20402;-77
2021/11/02 12:43:04;;;;;;;18.48;0.75;;;;;;;11.14;78.93;97382.97;4888229;29;20506;-77
2021/11/02 12:45:39;;;;;;;0.38;0.38;;;;;;;10.80;78.57;97390.41;4895871;29;20040;-77
2021/11/02 12:48:08;;;;;;;0.40;0.40;;;;;;;10.47;80.49;97391.75;4898856;29;20550;-77
2021/11/02 12:50:37;;;;;;;0.30;0.30;;;;;;;10.45;83.18;97388.41;4898684;29;20608;-77
2021/11/02 12:53:06;;;;;;;0.30;0.30;;;;;;;10.33;80.26;97392.31;4897149;29;20451;-77
2021/11/02 12:55:34;;;;;;;0.30;0.30;;;;;;;10.14;79.04;97401.66;4898675;29;20439;-77
2021/11/02 12:58:11;;;;;;;0.30;0.30;;;;;;;9.86;80.33;97400.09;4898425;29;20127;-77
2021/11/02 13:00:52;;;;;;;0.32;0.32;;;;;;;9.75;80.02;97399.66;4898580;29;20025;-77
2021/11/02 13:03:24;;;;;;;0.30;0.30;;;;;;;9.71;81.15;97390.34;4898348;29;20020;-77
2021/11/02 13:06:02;;;;;;;0.40;0.40;;;;;;;9.69;80.84;97399.91;4898499;29;20379;-77
2021/11/02 13:08:55;;;;;;;0.30;0.30;;;;;;;9.76;78.79;97403.94;4898133;29;20052;-77
2021/11/02 13:11:21;;;;;;;0.30;0.30;;;;;;;9.77;78.89;97400.47;4890472;29;20049;-77
2021/11/02 13:14:03;;;;;;;0.40;0.40;;;;;;;9.86;76.76;97410.44;4889757;29;20033;-77
2021/11/02 13:16:50;;;;;;;0.30;0.30;;;;;;;9.90;78.47;97406.03;4898358;29;20052;-77
2021/11/02 13:19:16;;;;;;;0.30;0.30;;;;;;;9.99;77.31;97405.69;4898007;29;20024;-77
2021/11/02 13:21:43;;;;;;;0.40;0.40;;;;;;;10.25;77.58;97407.28;4898052;29;20064;-77
2021/11/02 13:24:16;;;;;;;0.40;0.40;;;;;;;10.43;80.37;97403.16;4898076;29;20084;-72
2021/11/02 13:26:44;;;;;;;0.30;0.30;;;;;;;10.92;74.78;97407.19;4898046;29;20028;-72
2021/11/02 13:29:15;;;;;;;0.22;0.22;;;;;;;11.21;71.94;97394.75;4897705;29;20029;-72
2021/11/02 13:31:41;;;;;;;0.40;0.40;;;;;;;11.30;71.20;97407.31;4897967;29;20036;-72
2021/11/02 13:34:33;;;;;;;0.30;0.30;;;;;;;11.30;70.72;97400.38;4896674;29;20443;-72
2021/11/02 13:37:10;;;;;;;0.20;0.20;;;;;;;11.04;72.35;97401.50;4895177;29;20141;-72
2021/11/02 13:39:58;;;;;;;0.38;0.38;;;;;;;10.90;73.22;97402.97;4897702;29;20107;-72
2021/11/02 13:42:45;;;;;;;0.30;0.30;;;;;;;10.66;73.56;97407.41;4892016;29;20620;-72
2021/11/02 13:45:13;;;;;;;0.30;0.30;;;;;;;10.39;74.90;97401.56;4886820;29;20119;-72
2021/11/02 13:47:40;;;;;;;0.40;0.40;;;;;;;10.26;74.97;97406.41;4897716;29;20033;-72
2021/11/02 13:50:06;;;;;;;0.40;0.40;;;;;;;10.08;77.00;97404.50;4897260;29;20111;-72
2021/11/02 13:52:31;;;;;;;0.43;0.43;;;;;;;9.96;76.32;97408.38;4897459;29;20036;-72
2021/11/02 13:54:57;;;;;;;0.38;0.38;;;;;;;9.90;77.47;97409.44;4897560;29;20494;-72
2021/11/02 13:57:22;;;;;;;0.30;0.30;;;;;;;9.77;78.29;97416.00;4897612;29;20039;-72
2021/11/02 13:59:47;;;;;;;0.30;0.30;;;;;;;9.76;79.02;97411.69;4897311;29;20024;-72
2021/11/02 14:02:13;;;;;;;0.47;0.47;;;;;;;9.80;80.17;97400.34;4897275;29;20060;-72
2021/11/02 14:04:41;;;;;;;0.30;0.30;;;;;;;9.69;78.10;97420.59;4897413;29;20056;-72
2021/11/02 14:07:11;;;;;;;0.30;0.30;;;;;;;9.67;78.14;97422.38;4897337;29;20025;-72
2021/11/02 14:09:39;;;;;;;;;;;;;;;9.70;77.79;97406.75;4897599;29;20020;-72
2021/11/02 14:12:27;;;;;;;0.40;0.40;;;;;;;9.68;75.97;97408.56;4891447;29;19982;-72
2021/11/02 14:15:14;;;;;;;0.40;0.40;;;;;;;9.54;76.85;97416.81;4881810;29;20056;-72
2021/11/02 14:17:45;;;;;;;0.30;0.30;;;;;;;9.50;76.66;97421.25;4897168;29;20506;-71
2021/11/02 14:20:12;;;;;;;0.30;0.30;;;;;;;9.57;77.44;97421.03;4897077;29;20094;-73
2021/11/02 14:22:48;;;;;;;0.30;0.30;;;;;;;9.50;78.01;97426.41;4896816;29;20107;-73
2021/11/02 14:25:33;;;;;;;0.30;0.30;;;;;;;9.44;76.52;97426.66;4897283;29;20036;-73
2021/11/02 14:27:59;;;;;;;1.30;1.23;;;;;;;9.50;76.38;97431.59;4897286;29;20024;-73
2021/11/02 14:30:37;;;;;;;0.40;0.40;;;;;;;9.69;80.35;97433.53;4896714;29;20455;-73
2021/11/02 14:33:04;;;;;;;0.40;0.40;;;;;;;9.67;75.12;97428.41;4896881;29;20116;-73
2021/11/02 14:35:48;;;;;;;1.10;0.50;;;;;;;9.92;74.73;97432.69;4896743;29;20039;-73
2021/11/02 14:38:27;;;;;;;0.30;0.30;;;;;;;10.04;75.47;97433.06;4896669;29;20063;-74
2021/11/02 14:40:58;;;;;;;0.30;0.30;;;;;;;9.95;73.67;97436.00;4895627;29;20083;-74
2021/11/02 14:43:26;;;;;;;0.38;0.38;;;;;;;9.88;74.17;97437.13;4885642;29;20025;-74
2021/11/02 14:46:03;;;;;;;0.30;0.30;;;;;;;9.77;75.30;97429.78;4896684;29;20032;-74
2021/11/02 14:48:32;;;;;;;0.40;0.40;;;;;;;9.70;74.46;97437.78;4896877;29;20043;-74
2021/11/02 14:51:00;;;;;;;0.40;0.40;;;;;;;9.75;74.19;97443.63;4896717;29;20039;-74
2021/11/02 14:53:27;;;;;;;0.30;0.30;;;;;;;9.75;73.27;97447.06;4896699;29;20269;-74
2021/11/02 14:56:28;;;;;;;0.30;0.30;;;;;;;9.69;74.96;97451.63;4896809;29;20024;-74
2021/11/02 14:58:56;;;;;;;0.52;0.52;;;;;;;9.65;74.38;97450.03;4896722;29;20028;-74
2021/11/02 15:01:25;;;;;;;0.30;0.30;;;;;;;9.55;73.84;97446.09;4896619;29;20031;-74
2021/11/02 15:04:02;;;;;;;0.93;0.90;;;;;;;9.46;74.55;97445.53;4896781;29;20036;-74
2021/11/02 15:06:27;;;;;;;0.50;0.50;;;;;;;9.47;75.91;97447.19;4896477;29;20033;-74
2021/11/02 15:08:53;;;;;;;0.30;0.30;;;;;;;9.44;75.57;97455.09;4895346;29;20039;-73
2021/11/02 15:11:19;;;;;;;0.73;0.57;;;;;;;9.36;76.47;97449.31;4891834;29;20037;-74
2021/11/02 15:13:52;;;;;;;0.63;0.63;;;;;;;9.41;77.04;97447.44;4887637;29;20077;-74
2021/11/02 15:16:18;;;;;;;0.45;0.45;;;;;;;9.31;76.47;97451.22;4896665;29;20088;-74
2021/11/02 15:18:50;;;;;;;0.40;0.40;;;;;;;9.34;76.95;97445.97;4896530;29;20025;-74
2021/11/02 15:21:33;;;;;;;0.40;0.40;;;;;;;9.31;77.32;97451.22;4896260;29;20029;-73
2021/11/02 15:24:06;;;;;;;1.65;1.55;;;;;;;9.39;78.21;97444.06;4896830;29;20470;-74
2021/11/02 15:26:42;;;;;;;0.60;0.60;;;;;;;9.30;75.68;97444.38;4896561;29;20478;-74
2021/11/02 15:29:09;;;;;;;0.30;0.30;;;;;;;9.24;76.11;97449.75;4896299;29;20171;-74
2021/11/02 15:31:34;;;;;;;0.68;0.68;;;;;;;9.17;77.81;97445.69;4896263;29;20040;-74
2021/11/02 15:34:14;;;;;;;1.08;0.82;;;;;;;9.10;76.52;97441.63;4896641;29;20033;-74
2021/11/02 15:36:40;;;;;;;0.55;0.55;;;;;;;9.19;77.66;97446.50;4896469;29;20111;-73
2021/11/02 15:39:07;;;;;;;0.30;0.30;;;;;;;9.16;79.36;97451.75;4896365;29;20124;-69
2021/11/02 15:41:33;;;;;;;0.40;0.40;;;;;;;9.09;78.01;97455.41;4890433;29;20056;-69
2021/11/02 15:44:03;;;;;;;0.40;0.40;;;;;;;9.13;77.86;97462.19;4888921;29;20056;-68
2021/11/02 15:46:40;;;;;;;1.77;1.13;;;;;;;9.14;78.40;97461.31;4896614;29;20099;-69
2021/11/02 15:49:08;;;;;;;0.90;0.90;;;;;;;9.02;78.96;97460.81;4896255;29;20028;-69
2021/11/02 15:51:40;;;;;;;0.40;0.40;;;;;;;9.02;79.57;97459.97;4899125;29;20044;-69
2021/11/02 15:54:16;;;;;;;0.70;0.40;;;;;;;8.96;79.19;97461.00;4899745;29;20036;-69
2021/11/02 15:56:42;;;;;;;0.32;0.32;;;;;;;8.98;80.36;97458.38;4899736;29;20071;-69
2021/11/02 15:59:09;;;;;;;0.30;0.30;;;;;;;9.05;77.83;97464.19;4899600;29;20036;-69
2021/11/02 16:01:50;;;;;;;0.45;0.45;;;;;;;8.88;79.99;97452.66;4888499;29;20067;-69
2021/11/02 16:04:19;;;;;;;0.55;0.55;;;;;;;8.85;80.31;97455.34;4880845;29;20032;-69
2021/11/02 16:07:05;;;;;;;1.60;1.25;;;;;;;8.80;79.06;97453.78;4880834;29;20029;-71
2021/11/02 16:09:51;;;;;;;0.43;0.43;;;;;;;8.67;78.63;97458.53;4880753;29;20029;-71
2021/11/02 16:12:22;;;;;;;0.30;0.30;;;;;;;8.64;79.17;97463.78;4874903;29;20562;-70
2021/11/02 16:14:54;;;;;;;0.40;0.40;;;;;;;8.59;79.00;97473.41;4872946;29;20155;-71
2021/11/02 16:17:21;;;;;;;0.40;0.40;;;;;;;8.63;78.78;97467.25;4880644;29;20041;-76
2021/11/02 16:19:49;;;;;;;0.40;0.40;;;;;;;8.61;80.00;97463.88;4880450;29;20032;-76
2021/11/02 16:22:15;;;;;;;0.32;0.32;;;;;;;8.72;80.46;97472.13;4879252;29;20156;-77
2021/11/02 16:24:41;;;;;;;0.70;0.70;;;;;;;8.72;81.45;97477.28;4880490;29;20115;-76
2021/11/02 16:27:20;;;;;;;0.73;0.73;;;;;;;8.85;81.56;97478.59;4880493;29;20036;-74
2021/11/02 16:29:46;;;;;;;0.40;0.40;;;;;;;8.77;81.70;97479.72;4880145;29;20032;-75
2021/11/02 16:32:23;;;;;;;1.08;1.08;;;;;;;8.70;83.79;97494.56;4880270;29;20154;-76
2021/11/02 16:34:48;;;;;;;1.38;1.15;;;;;;;8.81;83.55;97492.50;4880369;29;20108;-73
2021/11/02 16:37:52;;;;;;;1.35;0.75;;;;;;;8.86;81.11;97495.78;4880264;29;20116;-75
2021/11/02 16:40:23;;;;;;;0.70;0.70;;;;;;;8.85;81.64;97499.25;4896471;29;20028;-75
2021/11/02 16:43:00;;;;;;;0.60;0.60;;;;;;;8.83;83.94;97501.03;4888021;29;20532;-75
2021/11/02 16:45:34;;;;;;;1.90;1.70;;;;;;;8.76;82.51;97496.97;4883392;29;20041;-75
2021/11/02 16:48:02;;;;;;;0.50;0.50;;;;;;;8.90;81.30;97502.53;4880122;29;20440;-76
2021/11/02 16:50:38;;;;;;;0.43;0.43;;;;;;;8.77;83.69;97501.22;4879816;29;20455;-76
2021/11/02 16:53:16;;;;;;;1.95;0.90;;;;;;;8.74;82.78;97503.91;4879815;29;20040;-77
2021/11/02 16:55:44;;;;;;;0.50;0.50;;;;;;;8.75;83.01;97497.84;4879927;29;20457;-76
2021/11/02 16:58:19;;;;;;;0.40;0.40;;;;;;;8.75;82.99;97503.00;4879802;29;20061;-76
2021/11/02 17:00:45;;;;;;;0.45;0.45;;;;;;;8.89;81.90;97506.00;4879406;29;20029;-76
2021/11/02 17:03:13;;;;;;;0.40;0.40;;;;;;;8.73;82.23;97517.72;4879458;29;20081;-76
2021/11/02 17:05:40;;;;;;;0.63;0.63;;;;;;;8.85;82.32;97511.31;4879742;29;20043;-77
2021/11/02 17:08:09;;;;;;;0.80;0.80;;;;;;;8.68;85.44;97512.69;4879705;29;20032;-77
2021/11/02 17:10:40;;;;;;;0.65;0.65;;;;;;;8.74;83.87;97514.22;4879459;29;20025;-77
2021/11/02 17:13:15;;;;;;;0.43;0.43;;;;;;;8.63;85.93;97508.56;4868748;29;20038;-77
2021/11/02 17:16:03;;;;;;;0.40;0.40;;;;;;;8.44;87.37;97513.44;4876649;29;20403;-76
2021/11/02 17:18:53;;;;;;;0.50;0.50;;;;;;;8.44;86.91;97519.44;4879167;29;20439;-76
2021/11/02 17:21:21;;;;;;;0.38;0.38;;;;;;;8.40;86.72;97523.00;4878043;29;20037;-76
2021/11/02 17:23:47;;;;;;;0.85;0.60;;;;;;;8.33;88.14;97526.63;4879177;29;20032;-76
2021/11/02 17:26:14;;;;;;;0.40;0.40;;;;;;;8.17;90.59;97528.81;4879165;29;20072;-76
2021/11/02 17:28:46;;;;;;;0.20;0.20;;;;;;;8.14;90.64;97520.31;4878850;29;20032;-76
2021/11/02 17:31:16;;;;;;;0.40;0.40;;;;;;;8.12;92.02;97533.25;4879754;29;20111;-72
2021/11/02 17:33:43;;;;;;;3.22;0.77;;;;;;;8.02;94.08;97536.13;4878984;29;20115;-72
2021/11/02 17:36:14;;;;;;;2.03;1.20;;;;;;;7.94;93.72;97534.63;4876309;29;20032;-71
2021/11/02 17:38:41;;;;;;;0.40;0.40;;;;;;;8.07;93.96;97539.41;4870909;29;20033;-72
2021/11/02 17:41:08;;;;;;;0.95;0.95;;;;;;;8.05;94.59;97541.19;4876234;29;20029;-72
2021/11/02 17:43:35;;;;;;;5.32;1.65;;;;;;;8.06;92.74;97550.63;4868394;29;20029;-72
2021/11/02 17:46:01;;;;;;;1.77;1.27;;;;;;;8.10;92.76;97554.81;4878888;29;20109;-72
2021/11/02 17:48:27;;;;;;;0.90;0.90;;;;;;;8.02;94.03;97556.75;4878587;29;20044;-72
2021/11/02 17:50:54;;;;;;;1.45;1.35;;;;;;;7.89;94.23;97562.25;4878789;29;20029;-72
2021/11/02 17:53:19;;;;;;;3.67;2.17;;;;;;;7.83;94.44;97566.72;4878470;29;20177;-72
2021/11/02 17:55:46;;;;;;;1.50;1.38;;;;;;;7.74;95.66;97560.09;4878855;29;20104;-72
2021/11/02 17:58:12;;;;;;;5.78;3.03;;;;;;;7.67;95.28;97561.13;4878782;29;20033;-72
2021/11/02 18:00:38;;;;;;;1.33;1.30;;;;;;;7.80;95.47;97562.50;4878503;29;20040;-72
2021/11/02 18:03:07;;;;;;;5.25;3.03;;;;;;;7.71;96.07;97567.91;4878563;29;20032;-72
2021/11/02 18:05:33;;;;;;;5.33;3.53;;;;;;;7.58;96.36;97569.09;4876907;29;20108;-73
2021/11/02 18:08:00;;;;;;;3.55;2.15;;;;;;;7.56;97.50;97568.28;4870920;29;20090;-72
2021/11/02 18:10:27;;;;;;;3.08;2.67;;;;;;;7.52;97.66;97569.25;4878612;29;20028;-72
2021/11/02 18:12:53;;;;;;;5.70;4.10;;;;;;;7.43;98.54;97565.16;4868771;29;20484;-72
2021/11/02 18:15:18;;;;;;;7.97;5.03;;;;;;;7.35;97.32;97569.66;4874158;29;20033;-72
2021/11/02 18:17:47;;;;;;;12.35;4.95;;;;;;;7.38;97.40;97567.03;4878497;29;20025;-72
2021/11/02 18:20:13;;;;;;;10.77;6.07;;;;;;;7.39;98.18;97572.13;4878272;29;20037;-72
2021/11/02 18:22:42;;;;;;;12.85;6.53;;;;;;;7.23;99.32;97565.66;4878286;29;20112;-72
2021/11/02 18:25:09;;;;;;;21.30;8.73;;;;;;;7.11;99.79;97576.28;4878505;29;20391;-72
2021/11/02 18:27:34;;;;;;;30.27;14.02;;;;;;;7.05;100.00;97578.97;4878337;29;20510;-72
2021/11/02 18:30:00;;;;;;;29.25;14.63;;;;;;;7.08;100.00;97578.91;4878155;29;20063;-71
2021/11/02 18:32:26;;;;;;;13.10;7.15;;;;;;;7.10;99.73;97585.72;4878084;29;20028;-72
2021/11/02 18:34:52;;;;;;;8.45;4.25;;;;;;;7.05;99.73;97582.41;4878162;29;20116;-72
2021/11/02 18:37:18;;;;;;;5.03;3.17;;;;;;;7.14;100.00;97578.75;4869100;29;20431;-71
2021/11/02 18:39:45;;;;;;;3.03;2.05;;;;;;;7.16;97.99;97570.13;4860681;29;20388;-71
2021/11/02 18:42:11;;;;;;;1.95;0.70;;;;;;;7.24;96.42;97566.50;4864730;29;20029;-72
2021/11/02 18:44:38;;;;;;;2.15;2.00;;;;;;;7.28;97.37;97571.56;4870175;29;20456;-72
2021/11/02 18:47:04;;;;;;;1.63;1.52;;;;;;;7.35;96.66;97570.53;4877905;29;20021;-72
2021/11/02 18:49:31;;;;;;;2.35;1.27;;;;;;;7.58;92.77;97562.19;4877780;29;20050;-71
2021/11/02 18:51:58;;;;;;;1.55;1.00;;;;;;;7.62;92.50;97568.97;4878026;29;20384;-71
2021/11/02 18:54:24;;;;;;;1.65;0.73;;;;;;;7.58;92.34;97566.50;4878186;29;20029;-71
2021/11/02 18:56:49;;;;;;;0.90;0.90;;;;;;;7.50;93.33;97568.47;4878074;29;20029;-71
2021/11/02 18:59:15;;;;;;;0.47;0.47;;;;;;;7.45;94.68;97572.00;4878140;29;20372;-70
2021/11/02 19:01:44;;;;;;;1.23;1.13;;;;;;;7.37;94.16;97573.91;4877892;29;20097;-70
2021/11/02 19:04:11;;;;;;;0.93;0.93;;;;;;;7.28;95.58;97578.44;4878012;29;20036;-70
2021/11/02 19:06:37;;;;;;;1.15;1.13;;;;;;;7.11;96.22;97571.13;4875187;29;20033;-71
2021/11/02 19:09:03;;;;;;;3.22;2.45;;;;;;;7.06;95.64;97572.94;4871312;29;20364;-71
2021/11/02 19:11:29;;;;;;;1.70;1.60;;;;;;;6.99;95.65;97566.25;4872086;29;20081;-71
2021/11/02 19:13:55;;;;;;;3.28;2.28;;;;;;;6.89;97.09;97566.47;4870052;29;20490;-71
2021/11/02 19:16:20;;;;;;;3.50;1.60;;;;;;;6.84;97.00;97564.88;4877908;29;20033;-71
2021/11/02 19:18:47;;;;;;;0.65;0.65;;;;;;;6.77;96.57;97577.06;4877729;29;20124;-71
2021/11/02 19:21:13;;;;;;;0.85;0.85;;;;;;;6.84;97.16;97578.59;4877820;29;20029;-71
2021/11/02 19:23:39;;;;;;;1.90;1.77;;;;;;;6.77;97.26;97581.31;4877980;29;20065;-71
2021/11/02 19:26:04;;;;;;;1.77;1.67;;;;;;;6.57;97.35;97585.19;4881593;29;20025;-70